.
WxDataArchive / Data Records for 2007-05-31
2007-05-30 May 2007 2007-06-01

Data Records for Thursday, 31 May 2007

Time	Temp	Chill	HIndex	Humid	Dewpt	 Wind 	HiWind	WindDir	Rain 	Barom 
-----	----	-----	------	-----	-----	------	------	-------	-----	----- 
00:00	64.2	64.2	64.2	95	62.7	0	0	---	0.00	30.031 
00:05	64.0	64.0	64.0	95	62.5	0	0	---	0.00	30.030 
00:10	63.9	63.9	63.9	95	62.4	0	0	---	0.00	30.029 
00:15	63.9	63.9	63.9	95	62.4	0	0	---	0.00	30.029 
00:20	63.7	63.7	63.7	95	62.2	0	0	---	0.00	30.029 
00:25	63.7	63.7	63.7	96	62.5	0	0	---	0.00	30.029 
00:30	63.5	63.5	63.5	95	62.0	0	0	---	0.00	30.025 
00:35	63.4	63.4	63.4	96	62.2	0	0	---	0.00	30.028 
00:40	63.2	63.2	63.2	96	62.0	0	0	---	0.00	30.028 
00:45	63.1	63.1	63.1	96	61.9	0	0	---	0.00	30.029 
00:50	62.9	62.9	62.9	96	61.7	0	0	---	0.00	30.028 
00:55	62.9	62.9	62.9	96	61.7	0	0	---	0.00	30.025 
01:00	62.7	62.7	62.7	96	61.5	0	0	---	0.00	30.023 
01:05	62.4	62.4	62.4	96	61.2	0	0	---	0.00	30.021 
01:10	62.4	62.4	62.4	96	61.2	0	0	---	0.00	30.021 
01:15	62.4	62.4	62.4	96	61.2	0	0	---	0.00	30.020 
01:20	62.4	62.4	62.4	96	61.2	0	0	---	0.00	30.020 
01:25	62.4	62.4	62.4	96	61.2	0	0	---	0.00	30.020 
01:30	62.3	62.3	62.3	96	61.1	0	0	---	0.00	30.018 
01:35	62.1	62.1	62.1	96	60.9	0	0	---	0.00	30.019 
01:40	62.1	62.1	62.1	96	60.9	0	0	---	0.00	30.018 
01:45	62.0	62.0	62.0	96	60.8	0	0	---	0.00	30.017 
01:50	61.8	61.8	61.8	96	60.6	0	0	---	0.00	30.019 
01:55	61.6	61.6	61.6	96	60.4	0	0	---	0.00	30.018 
02:00	61.6	61.6	61.6	96	60.4	0	0	---	0.00	30.020 
02:05	61.5	61.5	61.5	96	60.3	0	0	---	0.00	30.019 
02:10	61.3	61.3	61.3	96	60.1	0	0	---	0.00	30.021 
02:15	61.2	61.2	61.2	96	60.0	0	0	---	0.00	30.020 
02:20	61.2	61.2	61.2	96	60.0	0	0	---	0.00	30.020 
02:25	61.0	61.0	61.0	96	59.8	0	0	---	0.00	30.018 
02:30	61.0	61.0	61.0	96	59.8	0	0	---	0.00	30.020 
02:35	61.0	61.0	61.0	96	59.8	0	0	---	0.00	30.020 
02:40	61.0	61.0	61.0	96	59.8	0	0	---	0.00	30.019 
02:45	61.0	61.0	61.0	96	59.8	0	0	---	0.00	30.018 
02:50	61.0	61.0	61.0	96	59.8	0	0	---	0.00	30.020 
02:55	61.0	61.0	61.0	96	59.8	0	0	---	0.00	30.019 
03:00	60.9	60.9	60.9	96	59.7	0	0	---	0.00	30.021 
03:05	60.9	60.9	60.9	97	60.0	0	0	---	0.00	30.024 
03:10	60.9	60.9	60.9	97	60.0	0	0	---	0.00	30.023 
03:15	61.0	61.0	61.0	97	60.1	0	0	---	0.00	30.022 
03:20	61.0	61.0	61.0	97	60.1	0	0	---	0.00	30.021 
03:25	60.9	60.9	60.9	97	60.0	0	0	---	0.00	30.021 
03:30	60.7	60.7	60.7	97	59.8	0	0	---	0.00	30.021 
03:35	60.5	60.5	60.5	97	59.6	0	0	---	0.00	30.021 
03:40	60.5	60.5	60.5	97	59.6	0	0	---	0.00	30.019 
03:45	60.4	60.4	60.4	97	59.5	0	1	90	0.00	30.021 
03:50	60.4	60.4	60.4	97	59.5	0	1	90	0.00	30.021 
03:55	60.4	60.4	60.4	97	59.5	0	0	---	0.00	30.020 
04:00	60.2	60.2	60.2	97	59.3	0	0	---	0.00	30.019 
04:05	60.1	60.1	60.1	97	59.2	0	0	---	0.00	30.020 
04:10	59.9	59.9	59.9	97	59.0	0	0	---	0.00	30.018 
04:15	59.8	59.8	59.8	97	58.9	0	0	---	0.00	30.018 
04:20	59.6	59.6	59.6	97	58.7	0	0	---	0.00	30.019 
04:25	59.6	59.6	59.6	97	58.7	0	0	---	0.00	30.019 
04:30	59.5	59.5	59.5	97	58.6	0	0	---	0.00	30.019 
04:35	59.3	59.3	59.3	97	58.4	0	0	---	0.00	30.021 
04:40	59.2	59.2	59.2	97	58.3	0	0	---	0.00	30.021 
04:45	59.2	59.2	59.2	97	58.3	0	0	---	0.00	30.021 
04:50	59.2	59.2	59.2	97	58.3	0	0	---	0.00	30.021 
04:55	59.0	59.0	59.0	97	58.1	0	0	---	0.00	30.021 
05:00	59.0	59.0	59.0	97	58.1	0	0	---	0.00	30.022 
05:05	58.9	58.9	58.9	97	58.0	0	0	---	0.00	30.031 
05:10	58.9	58.9	58.9	97	58.0	0	0	---	0.00	30.032 
05:15	58.7	58.7	58.7	97	57.8	0	0	---	0.00	30.033 
05:20	58.7	58.7	58.7	97	57.8	0	0	---	0.00	30.035 
05:25	58.6	58.6	58.6	97	57.7	0	0	---	0.00	30.035 
05:30	58.6	58.6	58.6	97	57.7	0	0	---	0.00	30.037 
05:35	58.6	58.6	58.6	97	57.7	0	0	---	0.00	30.039 
05:40	58.6	58.6	58.6	97	57.7	0	0	---	0.00	30.042 
05:45	58.7	58.7	58.7	97	57.8	0	0	---	0.00	30.042 
05:50	59.0	59.0	59.0	97	58.1	0	0	---	0.00	30.045 
05:55	59.3	59.3	59.3	98	58.7	0	0	---	0.00	30.044 
06:00	59.6	59.6	59.6	98	59.0	0	0	---	0.00	30.043 
06:05	59.9	59.9	59.9	98	59.3	0	0	---	0.00	30.044 
06:10	60.4	60.4	60.4	98	59.8	0	0	---	0.00	30.044 
06:15	60.7	60.7	60.7	98	60.1	0	0	---	0.00	30.043 
06:20	61.0	61.0	61.0	98	60.4	0	0	---	0.00	30.043 
06:25	61.3	61.3	61.3	98	60.7	0	0	---	0.00	30.042 
06:30	61.8	61.8	61.8	98	61.2	0	0	---	0.00	30.043 
06:35	62.4	62.4	62.4	98	61.8	0	0	---	0.00	30.043 
06:40	62.6	62.6	62.6	98	62.0	0	1	90	0.00	30.042 
06:45	62.7	62.7	62.7	98	62.1	0	1	90	0.00	30.043 
06:50	63.2	63.2	63.2	97	62.3	0	1	90	0.00	30.044 
06:55	63.4	63.4	63.4	95	61.9	0	1	90	0.00	30.045 
07:00	63.5	63.5	63.5	90	60.5	0	1	90	0.00	30.046 
07:05	64.0	64.0	64.0	86	59.7	0	2	90	0.00	30.050 
07:10	64.8	64.8	64.8	82	59.2	0	1	90	0.00	30.052 
07:15	65.6	65.6	65.6	80	59.3	0	1	90	0.00	30.051 
07:20	66.6	66.6	66.6	79	59.9	0	1	90	0.00	30.050 
07:25	67.3	67.3	67.3	77	59.8	0	1	90	0.00	30.048 
07:30	67.9	67.9	67.9	77	60.4	0	1	90	0.00	30.048 
07:35	68.4	68.4	68.4	76	60.5	0	0	---	0.00	30.050 
07:40	68.9	68.9	68.9	74	60.3	0	2	90	0.00	30.049 
07:45	69.4	69.4	69.4	76	61.5	0	1	90	0.00	30.046 
07:50	69.9	69.9	69.9	73	60.8	0	2	90	0.00	30.044 
07:55	70.8	70.8	70.8	72	61.3	1	2	90	0.00	30.044 
08:00	71.6	71.6	71.6	69	60.9	0	1	90	0.00	30.041 
08:05	72.5	72.5	72.5	69	61.7	1	2	90	0.00	30.045 
08:10	72.8	72.8	72.8	68	61.6	1	2	90	0.00	30.044 
08:15	73.2	73.2	73.2	67	61.6	0	2	90	0.00	30.047 
08:20	73.5	73.5	73.5	68	62.3	0	1	90	0.00	30.050 
08:25	73.7	73.7	73.7	68	62.5	0	1	90	0.00	30.050 
08:30	73.9	73.9	73.9	68	62.7	0	1	90	0.00	30.051 
08:35	74.2	74.2	74.2	67	62.5	0	2	90	0.00	30.052 
08:40	74.4	74.4	74.4	67	62.7	0	3	90	0.00	30.055 
08:45	74.4	74.4	74.4	69	63.5	0	2	202	0.00	30.054 
08:50	74.6	74.6	74.6	65	62.0	0	1	202	0.00	30.053 
08:55	74.7	74.7	74.7	64	61.7	0	1	202	0.00	30.053 
09:00	74.9	74.9	74.9	62	61.0	1	3	225	0.00	30.052 
09:05	75.4	75.4	77.5	62	61.5	0	1	225	0.00	30.053 
09:10	76.0	76.0	77.9	63	62.5	0	1	225	0.00	30.053 
09:15	76.5	76.5	78.4	62	62.5	0	2	225	0.00	30.053 
09:20	77.0	77.0	78.8	60	62.0	0	3	180	0.00	30.050 
09:25	77.0	77.0	78.8	61	62.5	1	3	180	0.00	30.050 
09:30	77.6	77.6	79.2	57	61.1	1	3	248	0.00	30.050 
09:35	78.1	78.1	79.6	57	61.6	1	3	202	0.00	30.049 
09:40	78.5	78.5	80.0	58	62.5	1	2	225	0.00	30.047 
09:45	78.5	78.5	79.9	56	61.5	1	3	225	0.00	30.043 
09:50	79.0	79.0	80.3	54	60.9	1	3	202	0.00	30.043 
09:55	79.6	79.6	80.7	53	60.9	1	2	90	0.00	30.043 
10:00	79.9	79.9	80.8	51	60.1	1	5	90	0.00	30.041 
10:05	80.1	80.1	81.1	52	60.9	1	3	90	0.00	30.044 
10:10	80.3	80.3	81.1	50	59.9	1	4	112	0.00	30.043 
10:15	80.3	80.3	81.5	54	62.1	1	3	112	0.00	30.041 
10:20	80.7	80.7	81.7	52	61.4	1	3	270	0.00	30.038 
10:25	80.7	80.7	81.4	50	60.3	1	3	90	0.00	30.038 
10:30	81.1	81.1	82.1	52	61.8	1	4	90	0.00	30.037 
10:35	81.2	81.2	82.2	52	61.9	1	6	90	0.00	30.036 
10:40	81.4	81.4	82.7	54	63.1	1	4	90	0.00	30.036 
10:45	81.8	81.8	82.6	50	61.3	2	5	112	0.00	30.035 
10:50	82.0	82.0	82.9	51	62.1	1	3	90	0.00	30.035 
10:55	82.0	82.0	82.8	50	61.5	2	4	90	0.00	30.035 
11:00	82.2	82.2	82.8	49	61.1	1	3	90	0.00	30.036 
11:05	82.6	82.6	83.1	48	60.9	0	1	90	0.00	30.036 
11:10	83.0	83.0	83.4	47	60.7	1	3	90	0.00	30.035 
11:15	83.4	83.4	83.3	44	59.2	1	3	270	0.00	30.035 
11:20	83.8	83.8	83.7	44	59.5	1	2	270	0.00	30.034 
11:25	84.0	84.0	83.6	42	58.4	1	4	112	0.00	30.034 
11:30	83.6	83.6	83.4	43	58.7	1	5	90	0.00	30.032 
11:35	83.8	83.8	83.6	43	58.9	0	3	90	0.00	30.030 
11:40	84.3	84.3	83.4	39	56.6	2	5	248	0.00	30.030 
11:45	84.5	84.5	83.5	38	56.1	2	5	248	0.00	30.027 
11:50	84.7	84.7	83.7	38	56.2	2	6	90	0.00	30.026 
11:55	84.7	84.7	84.2	41	58.4	1	4	90	0.00	30.022 
12:00	84.7	84.7	83.8	39	57.0	1	2	112	0.00	30.019 
12:05	84.5	84.5	83.0	35	53.8	1	5	90	0.00	30.019 
12:10	84.7	84.7	83.7	38	56.2	1	5	292	0.00	30.019 
12:15	84.9	84.9	83.9	38	56.4	1	4	248	0.00	30.018 
12:20	85.1	85.1	83.6	35	54.3	1	3	270	0.00	30.016 
12:25	85.3	85.3	83.6	34	53.7	2	5	270	0.00	30.015 
12:30	85.7	85.7	84.2	35	54.9	1	3	90	0.00	30.016 
12:35	86.3	86.3	84.8	35	55.4	1	4	248	0.00	30.013 
12:40	86.1	86.1	84.4	34	54.4	2	5	90	0.00	30.010 
12:45	85.9	85.9	84.2	34	54.2	1	3	248	0.00	30.007 
12:50	86.1	86.1	84.0	31	51.9	1	4	248	0.00	30.006 
12:55	86.1	86.1	84.1	32	52.8	1	5	248	0.00	30.006 
13:00	86.1	86.1	83.5	27	48.2	2	5	270	0.00	30.005 
13:05	85.7	85.7	83.4	29	49.7	2	5	248	0.00	30.004 
13:10	85.7	85.7	83.6	31	51.5	2	4	90	0.00	30.003 
13:15	86.1	86.1	83.5	27	48.2	1	3	292	0.00	30.002 
13:20	85.9	85.9	83.7	30	50.8	1	3	292	0.00	30.001 
13:25	85.7	85.7	83.4	29	49.7	2	3	270	0.00	29.999 
13:30	85.9	85.9	83.8	31	51.7	1	2	202	0.00	29.995 
13:35	86.1	86.1	83.8	30	51.0	1	4	202	0.00	29.995 
13:40	86.3	86.3	85.0	36	56.2	1	3	338	0.00	29.995 
13:45	86.7	86.7	84.7	32	53.3	1	3	90	0.00	29.991 
13:50	87.0	87.0	84.6	29	50.9	1	3	292	0.00	29.991 
13:55	87.4	87.4	85.0	29	51.2	1	4	248	0.00	29.988 
14:00	88.0	88.0	85.6	29	51.7	1	5	68	0.00	29.984 
14:05	87.6	87.6	84.9	27	49.4	2	5	248	0.00	29.986 
14:10	87.2	87.2	84.9	30	52.0	1	4	135	0.00	29.985 
14:15	87.2	87.2	84.9	30	52.0	1	3	68	0.00	29.985 
14:20	87.6	87.6	85.0	28	50.4	2	6	68	0.00	29.983 
14:25	87.8	87.8	85.2	28	50.6	1	4	45	0.00	29.980 
14:30	87.4	87.4	84.8	28	50.3	1	4	90	0.00	29.977 
14:35	87.4	87.4	84.7	27	49.3	2	5	90	0.00	29.974 
14:40	87.8	87.8	85.5	30	52.5	1	4	315	0.00	29.973 
14:45	87.8	87.8	85.1	27	49.6	2	5	90	0.00	29.972 
14:50	87.6	87.6	84.9	27	49.4	2	6	90	0.00	29.971 
14:55	87.6	87.6	84.9	27	49.4	2	6	90	0.00	29.969 
15:00	88.0	88.0	85.4	28	50.8	2	5	90	0.00	29.966 
15:05	88.0	88.0	85.4	28	50.8	2	10	270	0.00	29.961 
15:10	88.0	88.0	85.3	27	49.8	3	4	112	0.00	29.959 
15:15	88.4	88.4	85.7	27	50.1	1	3	112	0.00	29.960 
15:20	88.6	88.6	85.7	26	49.3	2	6	112	0.00	29.958 
15:25	88.2	88.2	85.6	28	50.9	1	4	270	0.00	29.958 
15:30	87.8	87.8	85.2	28	50.6	2	6	248	0.00	29.957 
15:35	87.8	87.8	85.2	28	50.6	3	6	248	0.00	29.957 
15:40	87.0	87.0	84.4	28	49.9	2	4	248	0.00	29.958 
15:45	86.7	86.7	84.3	29	50.6	1	3	270	0.00	29.957 
15:50	86.7	86.7	84.1	28	49.7	2	5	270	0.00	29.955 
15:55	86.3	86.3	83.9	29	50.3	1	4	315	0.00	29.954 
16:00	85.9	85.9	83.7	30	50.8	2	7	248	0.00	29.950 
16:05	85.5	85.5	83.2	29	49.6	1	4	45	0.00	29.949 
16:10	85.7	85.7	83.7	32	52.4	1	3	315	0.00	29.947 
16:15	86.3	86.3	84.0	30	51.2	0	2	22	0.00	29.945 
16:20	87.0	87.0	84.9	31	52.7	0	2	22	0.00	29.943 
16:25	87.4	87.4	84.8	28	50.3	1	4	112	0.00	29.941 
16:30	87.6	87.6	84.9	27	49.4	1	3	112	0.00	29.941 
16:35	87.4	87.4	84.7	27	49.3	2	5	248	0.00	29.941 
16:40	86.7	86.7	84.1	28	49.7	1	4	90	0.00	29.942 
16:45	86.3	86.3	83.7	27	48.3	1	3	270	0.00	29.941 
16:50	86.3	86.3	83.8	28	49.3	1	2	90	0.00	29.943 
16:55	86.1	86.1	83.6	28	49.1	0	2	90	0.00	29.943 
17:00	85.7	85.7	83.1	27	47.8	1	5	292	0.00	29.943 
17:05	85.7	85.7	83.2	28	48.8	1	6	112	0.00	29.942 
17:10	85.5	85.5	83.0	27	47.7	2	6	248	0.00	29.943 
17:15	85.3	85.3	82.7	26	46.5	2	5	270	0.00	29.945 
17:20	85.1	85.1	82.5	26	46.3	2	7	270	0.00	29.944 
17:25	84.9	84.9	82.5	27	47.2	2	5	270	0.00	29.945 
17:30	84.7	84.7	82.3	27	47.0	2	5	270	0.00	29.946 
17:35	84.5	84.5	82.1	27	46.8	2	7	270	0.00	29.946 
17:40	84.3	84.3	82.1	28	47.6	2	6	248	0.00	29.948 
17:45	84.1	84.1	81.9	28	47.4	1	5	270	0.00	29.948 
17:50	84.1	84.1	81.9	28	47.4	3	10	270	0.00	29.948 
17:55	84.1	84.1	81.8	27	46.5	3	11	248	0.00	29.955 
18:00	84.0	84.0	81.9	29	48.3	2	5	270	0.00	29.954 
18:05	84.0	84.0	82.0	30	49.2	2	5	270	0.00	29.956 
18:10	83.8	83.8	81.7	29	48.1	4	9	270	0.00	29.956 
18:15	83.8	83.8	81.9	31	49.9	2	6	248	0.00	29.956 
18:20	83.6	83.6	81.8	31	49.7	2	7	248	0.00	29.957 
18:25	83.4	83.4	81.6	31	49.6	3	11	270	0.00	29.959 
18:30	83.2	83.2	81.7	33	51.1	3	6	248	0.00	29.959 
18:35	83.0	83.0	81.6	34	51.7	3	7	270	0.00	29.961 
18:40	82.6	82.6	81.4	35	52.1	2	5	248	0.00	29.960 
18:45	82.2	82.2	81.2	36	52.6	2	6	248	0.00	29.962 
18:50	82.0	82.0	81.0	36	52.4	2	7	270	0.00	29.964 
18:55	81.8	81.8	80.8	35	51.4	2	4	270	0.00	29.966 
19:00	81.6	81.6	80.7	36	52.0	1	4	270	0.00	29.970 
19:05	81.2	81.2	80.3	35	50.9	2	4	248	0.00	29.965 
19:10	81.1	81.1	80.3	35	50.8	1	3	248	0.00	29.967 
19:15	80.9	80.9	80.2	36	51.4	1	2	248	0.00	29.969 
19:20	80.7	80.7	80.0	35	50.5	1	3	248	0.00	29.969 
19:25	80.7	80.7	79.9	34	49.7	2	7	270	0.00	29.970 
19:30	80.5	80.5	79.7	33	48.7	2	5	248	0.00	29.969 
19:35	80.7	80.7	79.8	32	48.1	2	7	270	0.00	29.970 
19:40	80.7	80.7	79.8	32	48.1	2	5	270	0.00	29.970 
19:45	80.5	80.5	79.6	32	47.9	2	7	270	0.00	29.970 
19:50	80.3	80.3	79.6	33	48.5	2	5	248	0.00	29.970 
19:55	80.1	80.1	79.5	33	48.4	1	3	270	0.00	29.970 
20:00	80.1	80.1	79.5	33	48.4	1	5	270	0.00	29.970 
20:05	79.9	79.9	79.4	34	49.0	1	3	270	0.00	29.969 
20:10	79.8	79.8	79.3	34	48.9	1	4	248	0.00	29.969 
20:15	79.6	79.6	79.3	35	49.5	1	3	270	0.00	29.969 
20:20	79.6	79.6	79.3	35	49.5	1	4	270	0.00	29.969 
20:25	79.6	79.6	79.3	35	49.5	1	5	248	0.00	29.969 
20:30	79.6	79.6	79.3	35	49.5	2	4	248	0.00	29.970 
20:35	79.4	79.4	79.2	36	50.1	1	3	270	0.00	29.971 
20:40	79.0	79.0	79.1	37	50.5	0	2	248	0.00	29.972 
20:45	78.8	78.8	79.0	37	50.3	1	3	270	0.00	29.971 
20:50	78.8	78.8	79.0	38	51.0	1	3	248	0.00	29.971 
20:55	78.8	78.8	79.0	38	51.0	0	2	248	0.00	29.972 
21:00	78.6	78.6	79.0	39	51.5	0	4	248	0.00	29.974 
21:05	78.3	78.3	78.8	39	51.3	0	1	248	0.00	29.971 
21:10	78.1	78.1	78.8	40	51.8	0	3	225	0.00	29.971 
21:15	78.1	78.1	78.8	40	51.8	0	1	225	0.00	29.971 
21:20	77.7	77.7	78.6	40	51.4	0	1	225	0.00	29.971 
21:25	77.6	77.6	78.5	40	51.3	0	2	225	0.00	29.972 
21:30	77.4	77.4	78.5	41	51.8	0	1	225	0.00	29.973 
21:35	77.2	77.2	78.4	42	52.3	0	1	225	0.00	29.975 
21:40	77.2	77.2	78.4	42	52.3	0	1	225	0.00	29.976 
21:45	77.0	77.0	78.3	42	52.1	0	1	225	0.00	29.978 
21:50	76.8	76.8	78.3	43	52.6	0	1	225	0.00	29.980 
21:55	76.7	76.7	78.2	43	52.5	0	1	225	0.00	29.981 
22:00	76.5	76.5	78.2	44	52.9	0	0	---	0.00	29.981 
22:05	76.3	76.3	78.1	45	53.4	0	1	225	0.00	29.979 
22:10	76.0	76.0	78.0	46	53.7	0	1	225	0.00	29.979 
22:15	75.8	75.8	77.9	45	52.9	0	1	225	0.00	29.978 
22:20	75.8	75.8	77.9	45	52.9	0	2	225	0.00	29.978 
22:25	75.6	75.6	77.8	46	53.3	0	1	225	0.00	29.976 
22:30	75.4	75.4	77.8	46	53.2	0	1	225	0.00	29.976 
22:35	75.3	75.3	77.7	48	54.2	0	1	225	0.00	29.977 
22:40	75.1	75.1	77.7	48	54.1	0	1	225	0.00	29.976 
22:45	74.9	74.9	74.9	48	53.9	0	0	---	0.00	29.976 
22:50	74.7	74.7	74.7	49	54.3	0	0	---	0.00	29.978 
22:55	74.6	74.6	74.6	49	54.2	0	1	225	0.00	29.978 
23:00	74.4	74.4	74.4	49	54.0	0	1	225	0.00	29.978 
23:05	74.2	74.2	74.2	49	53.8	0	1	225	0.00	29.974 
23:10	74.2	74.2	74.2	49	53.8	0	1	225	0.00	29.970 
23:15	74.2	74.2	74.2	50	54.3	0	0	---	0.00	29.970 
23:20	74.0	74.0	74.0	50	54.2	0	0	---	0.00	29.971 
23:25	74.0	74.0	74.0	51	54.7	0	0	---	0.00	29.971 
23:30	73.9	73.9	73.9	51	54.6	0	0	---	0.00	29.974 
23:35	73.7	73.7	73.7	51	54.4	0	0	---	0.00	29.976 
23:40	73.5	73.5	73.5	52	54.8	0	0	---	0.00	29.976 
23:45	73.3	73.3	73.3	52	54.6	0	0	---	0.00	29.974 
23:50	73.2	73.2	73.2	54	55.5	0	0	---	0.00	29.976 
23:55	73.2	73.2	73.2	54	55.5	0	0	---	0.00	29.976 

CoCoRaHS
IN-AL-39
A2 Web Hosting
Creative Commons License
GoDaddy
Look for:

loaded 2017-10-17 22:05:20 • last modified 2010-11-18 10:43:29
Privacy PolicyDisclaimer
• wx.awcolley.com is powered by PmWiki v.2002016 •
• all content (unless otherwise noted) © 2017 A W Colley